createdAt,value
2023-05-20T00:00:08.814Z,19.35
2023-05-20T00:00:20.944Z,25.48
2023-05-20T00:00:33.017Z,39.60
2023-05-20T00:00:46.508Z,55.67
2023-05-20T00:00:58.687Z,60.42
2023-05-20T00:01:11.440Z,49.95
2023-05-20T00:01:23.543Z,34.95
2023-05-20T00:01:36.676Z,26.00
2023-05-20T00:01:48.886Z,19.50
2023-05-20T00:02:01.175Z,19.35
2023-05-20T00:02:13.383Z,19.17
2023-05-20T00:02:25.657Z,18.63
2023-05-20T00:02:38.379Z,16.95
2023-05-20T00:02:50.715Z,13.20
2023-05-20T00:03:03.919Z,12.18
2023-05-20T00:03:16.313Z,10.93
2023-05-20T00:03:29.694Z,8.85
2023-05-20T00:03:42.447Z,8.90
2023-05-20T00:03:54.820Z,9.80
2023-05-20T00:04:07.281Z,12.25
2023-05-20T00:04:19.634Z,17.00
2023-05-20T00:04:32.814Z,20.48
2023-05-20T00:04:45.053Z,21.10
2023-05-20T00:04:57.165Z,18.52
2023-05-20T00:05:09.914Z,18.65
2023-05-20T00:05:22.024Z,17.30
2023-05-20T00:05:34.108Z,16.88
2023-05-20T00:05:46.454Z,16.77
2023-05-20T00:05:59.520Z,14.77
2023-05-20T00:06:13.009Z,12.68
2023-05-20T00:06:25.240Z,10.38
2023-05-20T00:06:37.342Z,9.35
2023-05-20T00:06:49.437Z,8.75
2023-05-20T00:07:01.541Z,8.05
2023-05-20T00:07:13.633Z,8.38
2023-05-20T00:07:26.138Z,7.10
2023-05-20T00:07:39.288Z,6.83
2023-05-20T00:07:51.399Z,8.60
2023-05-20T00:08:07.310Z,11.38
2023-05-20T00:08:19.898Z,14.93
2023-05-20T00:08:32.000Z,15.13
2023-05-20T00:08:44.201Z,13.40
2023-05-20T00:08:56.336Z,12.57
2023-05-20T00:09:09.932Z,10.15
2023-05-20T00:09:22.307Z,7.00
2023-05-20T00:09:34.361Z,6.63
2023-05-20T00:09:46.473Z,6.35
2023-05-20T00:09:58.591Z,6.82
2023-05-20T00:10:11.413Z,7.78
2023-05-20T00:10:23.540Z,8.93
2023-05-20T00:10:36.923Z,8.75
2023-05-20T00:10:49.024Z,7.30
2023-05-20T00:11:01.109Z,6.57
2023-05-20T00:11:13.250Z,7.63
2023-05-20T00:11:26.210Z,8.07
2023-05-20T00:11:39.234Z,6.85
2023-05-20T00:11:51.319Z,8.82
2023-05-20T00:12:03.500Z,10.27
2023-05-20T00:12:15.626Z,9.57
2023-05-20T00:12:27.728Z,7.47
2023-05-20T00:12:39.961Z,6.72
2023-05-20T00:12:52.050Z,5.18
2023-05-20T00:13:06.545Z,4.90
2023-05-20T00:13:18.623Z,4.88
2023-05-20T00:13:30.683Z,4.82
2023-05-20T00:13:42.736Z,4.80
2023-05-20T00:13:54.929Z,5.15
2023-05-20T00:14:07.145Z,6.13
2023-05-20T00:14:19.303Z,7.80
2023-05-20T00:14:32.507Z,8.13
2023-05-20T00:14:44.732Z,5.60
2023-05-20T00:14:56.915Z,4.88
2023-05-20T00:15:12.070Z,5.97
2023-05-20T00:15:24.301Z,6.03
2023-05-20T00:15:36.940Z,4.47
2023-05-20T00:15:49.192Z,5.10
2023-05-20T00:16:03.306Z,5.18
2023-05-20T00:16:16.589Z,6.55
2023-05-20T00:16:28.720Z,6.53
2023-05-20T00:16:41.798Z,5.35
2023-05-20T00:16:54.010Z,4.40
2023-05-20T00:17:06.203Z,4.47
2023-05-20T00:17:18.301Z,3.78
2023-05-20T00:17:31.310Z,4.38
2023-05-20T00:17:43.480Z,5.18
2023-05-20T00:17:56.772Z,5.68
2023-05-20T00:18:08.905Z,5.55
2023-05-20T00:18:21.002Z,6.43
2023-05-20T00:18:33.118Z,6.47
2023-05-20T00:18:45.185Z,6.80
2023-05-20T00:18:57.420Z,6.55
2023-05-20T00:19:10.651Z,6.53
2023-05-20T00:19:22.881Z,6.63
2023-05-20T00:19:35.018Z,7.40
2023-05-20T00:19:47.141Z,6.43
2023-05-20T00:20:00.128Z,6.50
2023-05-20T00:20:13.100Z,5.82
2023-05-20T00:20:25.286Z,5.05
2023-05-20T00:20:38.364Z,4.05
2023-05-20T00:20:51.108Z,4.00
2023-05-20T00:21:03.360Z,5.60
2023-05-20T00:21:16.892Z,7.50
2023-05-20T00:21:29.625Z,7.03
2023-05-20T00:21:41.746Z,4.10
2023-05-20T00:21:53.893Z,5.05
2023-05-20T00:22:07.406Z,4.88
2023-05-20T00:22:19.650Z,4.70
2023-05-20T00:22:31.884Z,5.00
2023-05-20T00:22:44.067Z,5.72
2023-05-20T00:22:56.276Z,6.93
2023-05-20T00:23:08.418Z,6.53
2023-05-20T00:23:20.741Z,6.20
2023-05-20T00:23:33.799Z,6.25
2023-05-20T00:23:45.868Z,5.68
2023-05-20T00:23:58.667Z,5.90
2023-05-20T00:24:10.804Z,5.45
2023-05-20T00:24:22.891Z,5.25
2023-05-20T00:24:34.979Z,4.35
2023-05-20T00:24:47.064Z,4.28
2023-05-20T00:25:00.684Z,5.53
2023-05-20T00:25:14.735Z,6.28
2023-05-20T00:25:26.954Z,6.18
2023-05-20T00:25:39.132Z,5.60
2023-05-20T00:25:51.242Z,4.88
2023-05-20T00:26:04.981Z,4.50
2023-05-20T00:26:17.230Z,4.75
2023-05-20T00:26:30.832Z,4.30
2023-05-20T00:26:42.930Z,5.18
2023-05-20T00:26:55.037Z,5.75
2023-05-20T00:27:07.116Z,4.82
2023-05-20T00:27:19.291Z,5.60
2023-05-20T00:27:31.448Z,5.65
2023-05-20T00:27:43.517Z,7.10
2023-05-20T00:27:56.612Z,5.63
2023-05-20T00:28:08.671Z,5.72
2023-05-20T00:28:21.174Z,5.47
2023-05-20T00:28:33.283Z,5.63
2023-05-20T00:28:45.360Z,5.07
2023-05-20T00:28:57.425Z,4.40
2023-05-20T00:29:09.503Z,5.68
2023-05-20T00:29:23.166Z,5.70
2023-05-20T00:29:35.561Z,5.15
2023-05-20T00:29:47.657Z,5.38
2023-05-20T00:29:59.726Z,5.75
2023-05-20T00:30:12.760Z,5.78
2023-05-20T00:30:24.911Z,5.57
2023-05-20T00:30:39.832Z,4.05
2023-05-20T00:30:52.914Z,4.88
2023-05-20T00:31:06.632Z,6.50
2023-05-20T00:31:18.741Z,5.85
2023-05-20T00:31:30.892Z,5.38
2023-05-20T00:31:43.029Z,5.20
2023-05-20T00:31:55.223Z,4.65
2023-05-20T00:32:09.069Z,5.47
2023-05-20T00:32:21.350Z,6.68
2023-05-20T00:32:34.131Z,5.37
2023-05-20T00:32:46.413Z,4.78
2023-05-20T00:32:58.599Z,5.03
2023-05-20T00:33:10.753Z,4.45
2023-05-20T00:33:22.905Z,4.18
2023-05-20T00:33:36.327Z,5.13
2023-05-20T00:33:49.415Z,5.05
2023-05-20T00:34:01.579Z,5.20
2023-05-20T00:34:13.725Z,4.50
2023-05-20T00:34:26.030Z,5.85
2023-05-20T00:34:38.119Z,5.00
2023-05-20T00:34:57.353Z,4.15
2023-05-20T00:35:10.942Z,4.90
2023-05-20T00:35:24.205Z,4.93
2023-05-20T00:35:36.702Z,5.15
2023-05-20T00:35:48.937Z,6.25
2023-05-20T00:36:01.022Z,5.93
2023-05-20T00:36:13.255Z,4.30
2023-05-20T00:36:27.317Z,6.10
2023-05-20T00:36:39.439Z,7.75
2023-05-20T00:36:51.921Z,7.07
2023-05-20T00:37:05.048Z,7.15
2023-05-20T00:37:17.134Z,6.18
2023-05-20T00:37:29.267Z,6.75
2023-05-20T00:37:41.376Z,6.00
2023-05-20T00:37:53.441Z,4.50
2023-05-20T00:38:05.882Z,5.57
2023-05-20T00:38:18.564Z,6.03
2023-05-20T00:38:30.643Z,4.95
2023-05-20T00:38:42.716Z,4.10
2023-05-20T00:38:55.912Z,3.97
2023-05-20T00:39:07.982Z,4.25
2023-05-20T00:39:20.268Z,5.38
2023-05-20T00:39:32.352Z,5.32
2023-05-20T00:39:44.442Z,3.92
2023-05-20T00:39:56.659Z,4.45
2023-05-20T00:40:11.292Z,4.55
2023-05-20T00:40:25.095Z,4.32
2023-05-20T00:40:37.248Z,3.93
2023-05-20T00:40:49.424Z,3.78
2023-05-20T00:41:01.613Z,4.05
2023-05-20T00:41:13.770Z,4.30
2023-05-20T00:41:26.241Z,6.25
2023-05-20T00:41:39.418Z,9.13
2023-05-20T00:41:51.548Z,9.95
2023-05-20T00:42:03.829Z,4.57
2023-05-20T00:42:21.556Z,3.85
2023-05-20T00:42:33.759Z,5.13
2023-05-20T00:42:45.984Z,4.65
2023-05-20T00:42:58.131Z,4.38
2023-05-20T00:43:11.182Z,3.53
2023-05-20T00:43:25.521Z,4.40
2023-05-20T00:43:37.654Z,4.65
2023-05-20T00:43:53.526Z,3.65
2023-05-20T00:44:05.626Z,4.00
2023-05-20T00:44:18.710Z,4.82
2023-05-20T00:44:30.791Z,4.97
2023-05-20T00:44:43.056Z,5.93
2023-05-20T00:44:56.859Z,6.35
2023-05-20T00:45:10.369Z,6.15
2023-05-20T00:45:22.861Z,4.70
2023-05-20T00:45:35.323Z,5.00
2023-05-20T00:45:48.003Z,4.75
2023-05-20T00:46:01.296Z,5.78
2023-05-20T00:46:14.279Z,4.53
2023-05-20T00:46:29.697Z,3.88
2023-05-20T00:46:41.953Z,4.30
2023-05-20T00:46:54.549Z,5.50
2023-05-20T00:47:06.800Z,5.20
2023-05-20T00:47:21.554Z,5.85
2023-05-20T00:47:34.646Z,4.10
2023-05-20T00:47:47.106Z,3.85
2023-05-20T00:48:01.603Z,3.78
2023-05-20T00:48:14.935Z,3.85
2023-05-20T00:48:33.066Z,3.88
2023-05-20T00:48:45.449Z,4.22
2023-05-20T00:48:58.377Z,4.47
2023-05-20T00:49:10.486Z,4.15
2023-05-20T00:49:23.680Z,3.95
2023-05-20T00:49:35.797Z,3.65
2023-05-20T00:49:50.958Z,4.35
2023-05-20T00:50:05.829Z,4.97
2023-05-20T00:50:18.386Z,4.10
2023-05-20T00:50:30.678Z,4.35
2023-05-20T00:50:42.816Z,4.85
2023-05-20T00:50:54.957Z,4.88
2023-05-20T00:51:07.724Z,4.80
2023-05-20T00:51:21.953Z,4.43
2023-05-20T00:51:35.516Z,3.80
2023-05-20T00:51:47.796Z,3.88
2023-05-20T00:51:59.976Z,3.58
2023-05-20T00:52:12.835Z,3.10
2023-05-20T00:52:26.135Z,3.00
2023-05-20T00:52:39.052Z,5.90
2023-05-20T00:52:52.216Z,6.88
2023-05-20T00:53:04.627Z,5.18
2023-05-20T00:53:18.468Z,7.07
2023-05-20T00:53:30.613Z,6.05
2023-05-20T00:53:43.908Z,4.97
2023-05-20T00:53:56.723Z,6.18
2023-05-20T00:54:08.988Z,4.68
2023-05-20T00:54:23.070Z,3.60
2023-05-20T00:54:35.557Z,4.05
2023-05-20T00:54:47.968Z,6.13
2023-05-20T00:55:00.471Z,6.65
2023-05-20T00:55:12.677Z,5.35
2023-05-20T00:55:25.745Z,6.25
2023-05-20T00:55:39.573Z,5.43
2023-05-20T00:55:51.743Z,6.28
2023-05-20T00:56:05.111Z,6.75
2023-05-20T00:56:18.063Z,5.43
2023-05-20T00:56:30.341Z,4.50
2023-05-20T00:56:43.168Z,4.60
2023-05-20T00:56:55.343Z,5.15
2023-05-20T00:57:09.337Z,5.32
2023-05-20T00:57:21.593Z,5.72
2023-05-20T00:57:33.660Z,5.17
2023-05-20T00:57:45.814Z,3.33
2023-05-20T00:57:58.184Z,3.38
2023-05-20T00:58:10.821Z,3.50
2023-05-20T00:58:23.261Z,4.50
2023-05-20T00:58:36.794Z,5.72
2023-05-20T00:58:50.508Z,5.40
2023-05-20T00:59:02.975Z,6.35
2023-05-20T00:59:15.711Z,5.80
2023-05-20T00:59:27.803Z,5.45
2023-05-20T00:59:41.778Z,2.95
2023-05-20T00:59:55.352Z,3.25
2023-05-20T01:00:10.526Z,3.50
2023-05-20T01:00:23.853Z,4.05
2023-05-20T01:00:36.247Z,4.68
2023-05-20T01:00:48.442Z,4.75
2023-05-20T01:01:00.620Z,3.92
2023-05-20T01:01:13.416Z,6.53
2023-05-20T01:01:25.738Z,7.07
2023-05-20T01:01:37.896Z,4.82
2023-05-20T01:01:50.192Z,4.43
2023-05-20T01:02:03.529Z,4.22
2023-05-20T01:02:17.334Z,3.93
2023-05-20T01:02:29.962Z,3.40
2023-05-20T01:02:42.256Z,3.05
2023-05-20T01:02:56.427Z,4.25
2023-05-20T01:03:08.900Z,6.13
2023-05-20T01:03:22.269Z,5.95
2023-05-20T01:03:35.162Z,3.88
2023-05-20T01:03:49.055Z,3.60
2023-05-20T01:04:01.480Z,4.45
2023-05-20T01:04:13.916Z,4.30
2023-05-20T01:04:26.083Z,4.35
2023-05-20T01:04:38.394Z,5.13
2023-05-20T01:04:50.739Z,4.95
2023-05-20T01:05:03.288Z,3.85
2023-05-20T01:05:15.435Z,3.72
2023-05-20T01:05:28.718Z,3.70
2023-05-20T01:05:42.380Z,3.30
2023-05-20T01:05:54.801Z,3.63
2023-05-20T01:06:06.966Z,5.55
2023-05-20T01:06:19.150Z,6.15
2023-05-20T01:06:31.255Z,4.50
2023-05-20T01:06:46.251Z,4.05
2023-05-20T01:07:00.574Z,4.90
2023-05-20T01:07:15.854Z,4.07
2023-05-20T01:07:27.995Z,4.25
2023-05-20T01:07:40.249Z,5.03
2023-05-20T01:07:52.627Z,5.13
2023-05-20T01:08:05.178Z,4.68
2023-05-20T01:08:17.287Z,4.55
2023-05-20T01:08:30.472Z,4.53
2023-05-20T01:08:42.787Z,4.75
2023-05-20T01:08:55.052Z,4.38
2023-05-20T01:09:08.040Z,4.82
2023-05-20T01:09:20.155Z,4.23
2023-05-20T01:09:32.846Z,3.55
2023-05-20T01:09:45.729Z,3.67
2023-05-20T01:09:59.218Z,5.07
2023-05-20T01:10:11.913Z,7.20
2023-05-20T01:10:27.949Z,5.57
2023-05-20T01:10:46.527Z,3.03
2023-05-20T01:11:06.491Z,4.03
2023-05-20T01:11:26.662Z,4.30
2023-05-20T01:11:45.929Z,5.63
2023-05-20T01:12:09.301Z,6.47
2023-05-20T01:12:26.446Z,5.70
2023-05-20T01:12:43.952Z,4.57
2023-05-20T01:13:00.873Z,3.75
2023-05-20T01:13:20.205Z,4.57
2023-05-20T01:13:41.454Z,4.28
2023-05-20T01:13:58.212Z,4.32
2023-05-20T01:14:13.560Z,4.70
2023-05-20T01:14:30.312Z,5.70
2023-05-20T01:14:49.053Z,5.60
2023-05-20T01:15:09.567Z,4.97
2023-05-20T01:15:26.232Z,6.05
2023-05-20T01:15:40.880Z,5.00
2023-05-20T01:15:56.079Z,3.60
2023-05-20T01:16:10.952Z,4.50
2023-05-20T01:16:25.892Z,4.82
2023-05-20T01:16:39.653Z,4.50
2023-05-20T01:16:55.476Z,4.90
2023-05-20T01:17:11.123Z,6.07
2023-05-20T01:17:27.324Z,5.13
2023-05-20T01:17:45.195Z,3.80
2023-05-20T01:18:02.558Z,4.35
2023-05-20T01:18:18.409Z,6.22
2023-05-20T01:18:32.759Z,7.50
2023-05-20T01:18:50.618Z,5.13
2023-05-20T01:19:04.063Z,3.65
2023-05-20T01:19:27.868Z,3.73
2023-05-20T01:19:44.471Z,3.72
2023-05-20T01:20:00.184Z,3.65
2023-05-20T01:20:14.227Z,3.92
2023-05-20T01:20:26.685Z,4.00
2023-05-20T01:20:39.470Z,4.28
2023-05-20T01:20:54.678Z,4.43
2023-05-20T01:21:12.744Z,3.72
2023-05-20T01:21:25.270Z,3.83
2023-05-20T01:21:38.804Z,3.90
2023-05-20T01:21:54.555Z,4.32
2023-05-20T01:22:08.258Z,4.95
2023-05-20T01:22:25.140Z,4.47
2023-05-20T01:22:37.935Z,4.72
2023-05-20T01:22:54.833Z,5.07
2023-05-20T01:23:06.978Z,5.57
2023-05-20T01:23:19.129Z,5.72
2023-05-20T01:23:38.150Z,6.10
2023-05-20T01:23:50.262Z,3.88
2023-05-20T01:24:04.093Z,3.58
2023-05-20T01:24:17.135Z,4.88
2023-05-20T01:24:29.251Z,4.95
2023-05-20T01:24:42.970Z,5.00
2023-05-20T01:24:55.480Z,4.15
2023-05-20T01:25:08.592Z,3.22
2023-05-20T01:25:20.982Z,4.75
2023-05-20T01:25:34.215Z,5.53
2023-05-20T01:25:46.537Z,4.68
2023-05-20T01:25:58.610Z,4.82
2023-05-20T01:26:13.900Z,6.43
2023-05-20T01:26:26.983Z,6.90
2023-05-20T01:26:39.740Z,5.85
2023-05-20T01:26:51.837Z,7.43
2023-05-20T01:27:06.107Z,6.32
2023-05-20T01:27:20.460Z,4.75
2023-05-20T01:27:32.633Z,5.28
2023-05-20T01:27:45.002Z,5.00
2023-05-20T01:27:58.131Z,4.85
2023-05-20T01:28:10.446Z,4.93
2023-05-20T01:28:22.549Z,5.80
2023-05-20T01:28:36.701Z,5.40
2023-05-20T01:28:49.241Z,3.65
2023-05-20T01:29:04.334Z,3.72
2023-05-20T01:29:18.736Z,4.50
2023-05-20T01:29:34.929Z,5.40
2023-05-20T01:29:50.492Z,5.68
2023-05-20T01:30:02.729Z,5.13
2023-05-20T01:30:15.628Z,6.05
2023-05-20T01:30:35.448Z,5.18
2023-05-20T01:30:53.425Z,4.67
2023-05-20T01:31:14.093Z,4.80
2023-05-20T01:31:34.124Z,4.50
2023-05-20T01:31:48.293Z,4.18
2023-05-20T01:32:03.258Z,4.28
2023-05-20T01:32:20.920Z,4.30
2023-05-20T01:32:38.680Z,4.68
2023-05-20T01:32:55.624Z,5.18
2023-05-20T01:33:11.579Z,4.85
2023-05-20T01:33:26.726Z,4.78
2023-05-20T01:33:41.281Z,3.63
2023-05-20T01:33:58.316Z,3.60
2023-05-20T01:34:11.054Z,3.97
2023-05-20T01:34:25.286Z,3.72
2023-05-20T01:34:39.295Z,4.55
2023-05-20T01:34:54.481Z,5.28
2023-05-20T01:35:08.144Z,5.78
2023-05-20T01:35:22.864Z,5.25
2023-05-20T01:35:36.550Z,4.07
2023-05-20T01:35:49.207Z,3.22
2023-05-20T01:36:01.646Z,3.50
2023-05-20T01:36:15.694Z,5.80
2023-05-20T01:36:29.301Z,7.18
2023-05-20T01:36:41.864Z,6.20
2023-05-20T01:36:55.393Z,3.42
2023-05-20T01:37:09.269Z,4.10
2023-05-20T01:37:25.420Z,6.10
2023-05-20T01:37:40.407Z,7.60
2023-05-20T01:37:55.135Z,5.50
2023-05-20T01:38:08.206Z,5.10
2023-05-20T01:38:22.061Z,5.50
2023-05-20T01:38:35.873Z,4.97
2023-05-20T01:38:49.751Z,5.93
2023-05-20T01:39:03.091Z,6.28
2023-05-20T01:39:15.443Z,6.20
2023-05-20T01:39:28.841Z,5.60
2023-05-20T01:39:42.965Z,4.88
2023-05-20T01:39:56.632Z,6.50
2023-05-20T01:40:10.408Z,6.22
2023-05-20T01:40:23.912Z,3.60
2023-05-20T01:40:36.527Z,6.15
2023-05-20T01:40:49.260Z,7.40
2023-05-20T01:41:04.531Z,9.38
2023-05-20T01:41:17.280Z,7.90
2023-05-20T01:41:30.305Z,6.28
2023-05-20T01:41:42.695Z,5.10
2023-05-20T01:41:55.929Z,8.25
2023-05-20T01:42:09.209Z,7.47
2023-05-20T01:42:21.856Z,5.78
2023-05-20T01:42:35.838Z,4.40
2023-05-20T01:42:53.212Z,4.43
2023-05-20T01:43:06.336Z,3.78
2023-05-20T01:43:18.712Z,3.90
2023-05-20T01:43:31.175Z,4.53
2023-05-20T01:43:44.749Z,5.90
2023-05-20T01:43:56.981Z,5.88
2023-05-20T01:44:10.253Z,5.53
2023-05-20T01:44:23.006Z,3.40
2023-05-20T01:44:35.537Z,3.10
2023-05-20T01:44:47.675Z,3.35
2023-05-20T01:45:00.115Z,3.95
2023-05-20T01:45:12.512Z,4.55
2023-05-20T01:45:26.172Z,6.28
2023-05-20T01:45:39.828Z,6.50
2023-05-20T01:45:51.965Z,3.85
2023-05-20T01:46:06.762Z,3.15
2023-05-20T01:46:18.947Z,3.90
2023-05-20T01:46:33.681Z,4.82
2023-05-20T01:46:49.698Z,5.93
2023-05-20T01:47:01.884Z,6.30
2023-05-20T01:47:15.092Z,5.65
2023-05-20T01:47:27.237Z,4.05
2023-05-20T01:47:39.522Z,3.40
2023-05-20T01:47:51.883Z,3.67
2023-05-20T01:48:04.777Z,4.32
2023-05-20T01:48:17.001Z,6.40
2023-05-20T01:48:29.092Z,6.22
2023-05-20T01:48:41.463Z,5.07
2023-05-20T01:48:53.561Z,4.75
2023-05-20T01:49:05.738Z,5.75
2023-05-20T01:49:18.824Z,5.20
2023-05-20T01:49:30.958Z,5.40
2023-05-20T01:49:43.140Z,5.25
2023-05-20T01:49:55.252Z,5.82
2023-05-20T01:50:09.147Z,5.05
2023-05-20T01:50:21.515Z,6.97
2023-05-20T01:50:34.579Z,5.70
2023-05-20T01:50:46.609Z,5.65
2023-05-20T01:50:58.700Z,5.35
2023-05-20T01:51:10.905Z,4.75
2023-05-20T01:51:23.149Z,4.78
2023-05-20T01:51:35.782Z,4.20
2023-05-20T01:51:47.902Z,3.90
2023-05-20T01:52:00.576Z,4.57
2023-05-20T01:52:13.801Z,5.15
2023-05-20T01:52:27.408Z,4.93
2023-05-20T01:52:39.716Z,5.35
2023-05-20T01:52:52.124Z,5.88
2023-05-20T01:53:04.446Z,5.40
2023-05-20T01:53:16.506Z,5.30
2023-05-20T01:53:29.249Z,5.57
2023-05-20T01:53:41.331Z,7.18
2023-05-20T01:53:54.717Z,7.68
2023-05-20T01:54:06.921Z,5.05
2023-05-20T01:54:19.172Z,5.20
2023-05-20T01:54:31.369Z,5.40
2023-05-20T01:54:43.408Z,5.10
2023-05-20T01:54:55.527Z,4.80
2023-05-20T01:55:09.551Z,6.18
2023-05-20T01:55:21.773Z,5.20
2023-05-20T01:55:34.222Z,3.80
2023-05-20T01:55:46.472Z,3.45
2023-05-20T01:55:58.646Z,4.00
2023-05-20T01:56:10.834Z,3.88
2023-05-20T01:56:22.965Z,5.05
2023-05-20T01:56:35.071Z,5.38
2023-05-20T01:56:47.616Z,4.18
2023-05-20T01:57:00.685Z,7.53
2023-05-20T01:57:12.746Z,7.22
2023-05-20T01:57:24.813Z,6.72
2023-05-20T01:57:37.060Z,6.65
2023-05-20T01:57:49.347Z,6.00
2023-05-20T01:58:01.464Z,5.30
2023-05-20T01:58:13.567Z,5.32
2023-05-20T01:58:26.720Z,4.90
2023-05-20T01:58:38.834Z,4.88
2023-05-20T01:58:50.910Z,3.95
2023-05-20T01:59:03.127Z,4.03
2023-05-20T01:59:15.373Z,4.97
2023-05-20T01:59:27.577Z,8.45
2023-05-20T01:59:39.633Z,7.05
2023-05-20T01:59:51.820Z,6.15
2023-05-20T02:00:06.234Z,4.32
2023-05-20T02:00:18.317Z,4.25
2023-05-20T02:00:32.129Z,3.53
2023-05-20T02:00:44.514Z,3.35
2023-05-20T02:00:56.630Z,4.07
2023-05-20T02:01:09.645Z,4.38
2023-05-20T02:01:21.999Z,6.45
2023-05-20T02:01:34.108Z,6.60
2023-05-20T02:01:47.205Z,6.57
2023-05-20T02:01:59.427Z,5.28
2023-05-20T02:02:11.634Z,6.20
2023-05-20T02:02:23.897Z,5.20
2023-05-20T02:02:36.431Z,6.80
2023-05-20T02:02:48.838Z,6.32
2023-05-20T02:03:01.103Z,6.13
2023-05-20T02:03:13.309Z,5.50
2023-05-20T02:03:26.537Z,5.82
2023-05-20T02:03:38.635Z,5.00
2023-05-20T02:03:50.855Z,4.85
2023-05-20T02:04:02.928Z,4.68
2023-05-20T02:04:15.010Z,4.85
2023-05-20T02:04:27.382Z,4.65
2023-05-20T02:04:39.560Z,4.80
2023-05-20T02:04:55.009Z,4.78
2023-05-20T02:05:09.049Z,4.85
2023-05-20T02:05:21.132Z,6.93
2023-05-20T02:05:33.525Z,8.15
2023-05-20T02:05:45.937Z,9.45
2023-05-20T02:05:58.015Z,7.70
2023-05-20T02:06:10.213Z,5.53
2023-05-20T02:06:22.362Z,6.22
2023-05-20T02:06:35.501Z,5.18
2023-05-20T02:06:47.578Z,3.92
2023-05-20T02:06:59.649Z,4.43
2023-05-20T02:07:11.718Z,4.68
2023-05-20T02:07:23.797Z,5.45
2023-05-20T02:07:37.312Z,6.03
2023-05-20T02:07:49.414Z,6.20
2023-05-20T02:08:02.529Z,5.63
2023-05-20T02:08:14.734Z,5.35
2023-05-20T02:08:26.973Z,5.65
2023-05-20T02:08:39.108Z,5.32
2023-05-20T02:08:51.204Z,5.43
2023-05-20T02:09:03.465Z,5.57
2023-05-20T02:09:15.818Z,4.78
2023-05-20T02:09:28.357Z,4.57
2023-05-20T02:09:41.595Z,4.57
2023-05-20T02:09:53.692Z,5.18
2023-05-20T02:10:07.367Z,5.47
2023-05-20T02:10:19.429Z,5.28
2023-05-20T02:10:31.508Z,4.47
2023-05-20T02:10:43.564Z,4.07
2023-05-20T02:10:55.804Z,4.60
2023-05-20T02:11:08.921Z,4.85
2023-05-20T02:11:21.904Z,4.47
2023-05-20T02:11:34.017Z,4.28
2023-05-20T02:11:46.109Z,4.50
2023-05-20T02:11:58.361Z,5.70
2023-05-20T02:12:16.375Z,5.53
2023-05-20T02:12:28.706Z,5.18
2023-05-20T02:12:41.782Z,5.13
2023-05-20T02:12:53.960Z,6.25
2023-05-20T02:13:06.079Z,7.88
2023-05-20T02:13:18.172Z,7.18
2023-05-20T02:13:30.543Z,7.15
2023-05-20T02:13:42.623Z,5.85
2023-05-20T02:13:54.720Z,6.47
2023-05-20T02:14:07.913Z,4.90
2023-05-20T02:14:20.125Z,5.10
2023-05-20T02:14:32.215Z,6.93
2023-05-20T02:14:44.963Z,7.00
2023-05-20T02:14:57.159Z,5.43
2023-05-20T02:15:10.201Z,4.75
2023-05-20T02:15:23.326Z,4.00
2023-05-20T02:15:35.549Z,5.78
2023-05-20T02:15:47.803Z,5.80
2023-05-20T02:15:59.915Z,4.78
2023-05-20T02:16:12.021Z,5.22
2023-05-20T02:16:24.216Z,5.13
2023-05-20T02:16:36.451Z,5.28
2023-05-20T02:16:49.670Z,5.32
2023-05-20T02:17:01.998Z,7.07
2023-05-20T02:17:16.243Z,7.20
2023-05-20T02:17:28.726Z,6.35
2023-05-20T02:17:43.643Z,6.28
2023-05-20T02:17:59.684Z,6.90
2023-05-20T02:18:12.702Z,8.05
2023-05-20T02:18:26.549Z,8.35
2023-05-20T02:18:38.783Z,6.07
2023-05-20T02:18:53.077Z,4.60
2023-05-20T02:19:05.262Z,4.00
2023-05-20T02:19:23.841Z,4.15
2023-05-20T02:19:36.167Z,4.68
2023-05-20T02:19:48.321Z,5.15
2023-05-20T02:20:00.419Z,4.70
2023-05-20T02:20:14.292Z,4.75
2023-05-20T02:20:26.370Z,5.55
2023-05-20T02:20:38.507Z,5.80
2023-05-20T02:20:50.603Z,5.15
2023-05-20T02:21:03.862Z,5.00
2023-05-20T02:21:16.143Z,3.90
2023-05-20T02:21:28.227Z,3.20
2023-05-20T02:21:41.548Z,2.92
2023-05-20T02:21:54.626Z,3.13
2023-05-20T02:22:07.365Z,4.13
2023-05-20T02:22:19.431Z,4.78
2023-05-20T02:22:31.501Z,4.35
2023-05-20T02:22:44.958Z,3.90
2023-05-20T02:22:57.023Z,4.15
2023-05-20T02:23:09.135Z,4.22
2023-05-20T02:23:21.263Z,3.50
2023-05-20T02:23:33.336Z,4.43
2023-05-20T02:23:45.475Z,5.13
2023-05-20T02:23:58.505Z,5.60
2023-05-20T02:24:10.642Z,5.90
2023-05-20T02:24:22.695Z,5.20
2023-05-20T02:24:34.782Z,5.07
2023-05-20T02:24:47.013Z,5.22
2023-05-20T02:24:59.234Z,6.97
2023-05-20T02:25:11.691Z,5.60
2023-05-20T02:25:23.760Z,5.60
2023-05-20T02:25:36.821Z,5.03
2023-05-20T02:25:48.897Z,5.45
2023-05-20T02:26:01.726Z,4.85
2023-05-20T02:26:14.049Z,4.78
2023-05-20T02:26:26.369Z,5.38
2023-05-20T02:26:38.443Z,5.88
2023-05-20T02:26:51.298Z,5.38
2023-05-20T02:27:04.812Z,3.95
2023-05-20T02:27:16.922Z,3.88
2023-05-20T02:27:29.046Z,4.47
2023-05-20T02:27:41.218Z,4.72
2023-05-20T02:27:53.349Z,5.00
2023-05-20T02:28:06.115Z,5.22
2023-05-20T02:28:19.903Z,5.25
2023-05-20T02:28:31.982Z,5.70
2023-05-20T02:28:46.825Z,5.88
2023-05-20T02:28:58.933Z,5.07
2023-05-20T02:29:11.146Z,4.80
2023-05-20T02:29:23.278Z,3.72
2023-05-20T02:29:35.580Z,4.22
2023-05-20T02:29:47.680Z,5.30
2023-05-20T02:30:00.728Z,5.82
2023-05-20T02:30:13.096Z,5.97
2023-05-20T02:30:26.176Z,7.93
2023-05-20T02:30:38.408Z,8.38
2023-05-20T02:30:51.129Z,6.18
2023-05-20T02:31:03.267Z,5.25
2023-05-20T02:31:16.091Z,5.45
2023-05-20T02:31:28.208Z,4.93
2023-05-20T02:31:40.401Z,6.05
2023-05-20T02:31:52.497Z,6.25
2023-05-20T02:32:06.446Z,6.35
2023-05-20T02:32:20.608Z,4.90
2023-05-20T02:32:33.618Z,4.07
2023-05-20T02:32:45.820Z,4.38
2023-05-20T02:32:58.022Z,4.40
2023-05-20T02:33:10.422Z,4.80
2023-05-20T02:33:22.603Z,5.50
2023-05-20T02:33:35.755Z,5.85
2023-05-20T02:33:47.945Z,5.47
2023-05-20T02:34:01.530Z,5.47
2023-05-20T02:34:13.716Z,4.00
2023-05-20T02:34:26.282Z,4.47
2023-05-20T02:34:39.054Z,5.55
2023-05-20T02:34:52.130Z,5.75
2023-05-20T02:35:05.034Z,4.63
2023-05-20T02:35:17.361Z,4.03
2023-05-20T02:35:29.438Z,4.57
2023-05-20T02:35:41.522Z,4.57
2023-05-20T02:35:53.605Z,7.03
2023-05-20T02:36:06.189Z,7.97
2023-05-20T02:36:18.294Z,8.55
2023-05-20T02:36:32.365Z,5.60
2023-05-20T02:36:44.545Z,4.30
2023-05-20T02:36:56.654Z,4.22
2023-05-20T02:37:08.748Z,4.07
2023-05-20T02:37:20.954Z,3.97
2023-05-20T02:37:34.397Z,4.03
2023-05-20T02:37:48.299Z,5.68
2023-05-20T02:38:00.405Z,5.70
2023-05-20T02:38:13.225Z,5.18
2023-05-20T02:38:25.607Z,5.25
2023-05-20T02:38:37.704Z,4.78
2023-05-20T02:38:49.914Z,4.25
2023-05-20T02:39:02.412Z,5.88
2023-05-20T02:39:15.570Z,6.80
2023-05-20T02:39:28.553Z,4.93
2023-05-20T02:39:40.892Z,5.13
2023-05-20T02:39:53.014Z,5.15
2023-05-20T02:40:09.203Z,4.75
2023-05-20T02:40:21.393Z,5.07
2023-05-20T02:40:34.515Z,5.82
2023-05-20T02:40:46.676Z,5.32
2023-05-20T02:40:59.891Z,5.75
2023-05-20T02:41:11.961Z,3.88
2023-05-20T02:41:24.261Z,3.88
2023-05-20T02:41:36.649Z,3.83
2023-05-20T02:41:48.855Z,4.22
2023-05-20T02:42:01.897Z,4.53
2023-05-20T02:42:14.016Z,4.43
2023-05-20T02:42:26.040Z,5.47
2023-05-20T02:42:38.218Z,6.35
2023-05-20T02:42:50.577Z,6.63
2023-05-20T02:43:03.092Z,5.82
2023-05-20T02:43:15.334Z,4.30
2023-05-20T02:43:28.412Z,4.22
2023-05-20T02:43:40.856Z,4.77
2023-05-20T02:43:52.944Z,6.03
2023-05-20T02:44:05.455Z,4.80
2023-05-20T02:44:18.123Z,3.88
2023-05-20T02:44:30.495Z,3.03
2023-05-20T02:44:42.621Z,3.20
2023-05-20T02:44:58.385Z,2.78
2023-05-20T02:45:11.706Z,4.43
2023-05-20T02:45:23.846Z,5.03
2023-05-20T02:45:36.106Z,4.78
2023-05-20T02:45:48.181Z,5.07
2023-05-20T02:46:00.505Z,4.90
2023-05-20T02:46:12.770Z,5.03
2023-05-20T02:46:25.023Z,5.47
2023-05-20T02:46:37.229Z,5.78
2023-05-20T02:46:50.362Z,3.67
2023-05-20T02:47:02.409Z,3.95
2023-05-20T02:47:14.732Z,3.95
2023-05-20T02:47:27.765Z,4.78
2023-05-20T02:47:39.973Z,5.63
2023-05-20T02:47:52.094Z,5.93
2023-05-20T02:48:04.693Z,5.82
2023-05-20T02:48:17.816Z,7.35
2023-05-20T02:48:29.925Z,8.07
2023-05-20T02:48:42.092Z,7.15
2023-05-20T02:48:54.250Z,6.80
2023-05-20T02:49:06.476Z,6.63
2023-05-20T02:49:18.576Z,6.35
2023-05-20T02:49:31.667Z,5.40
2023-05-20T02:49:43.782Z,5.53
2023-05-20T02:49:56.481Z,6.75
2023-05-20T02:50:09.193Z,7.22
2023-05-20T02:50:21.384Z,5.10
2023-05-20T02:50:33.518Z,5.22
2023-05-20T02:50:47.904Z,4.90
2023-05-20T02:51:00.215Z,4.68
2023-05-20T02:51:12.375Z,4.97
2023-05-20T02:51:24.624Z,6.13
2023-05-20T02:51:37.210Z,6.32
2023-05-20T02:51:49.308Z,5.85
2023-05-20T02:52:01.467Z,5.43
2023-05-20T02:52:13.536Z,4.65
2023-05-20T02:52:26.578Z,3.80
2023-05-20T02:52:39.894Z,4.97
2023-05-20T02:52:53.439Z,5.38
2023-05-20T02:53:05.553Z,4.63
2023-05-20T02:53:17.608Z,5.07
2023-05-20T02:53:29.726Z,4.72